sensor_id;sensor_type;location;lat;lon;timestamp;P1;durP1;ratioP1;P2;durP2;ratioP2
71236;SDS011;58984;51.960;5.582;2022-10-17T00:01:10;6.65;;;4.07;;
71236;SDS011;58984;51.960;5.582;2022-10-17T00:03:37;7.95;;;4.20;;
71236;SDS011;58984;51.960;5.582;2022-10-17T00:06:07;5.68;;;4.18;;
71236;SDS011;58984;51.960;5.582;2022-10-17T00:08:36;8.90;;;5.05;;
71236;SDS011;58984;51.960;5.582;2022-10-17T00:11:06;6.53;;;4.30;;
71236;SDS011;58984;51.960;5.582;2022-10-17T00:13:34;7.68;;;4.38;;
71236;SDS011;58984;51.960;5.582;2022-10-17T00:16:00;6.47;;;4.05;;
71236;SDS011;58984;51.960;5.582;2022-10-17T00:18:26;7.68;;;4.03;;
71236;SDS011;58984;51.960;5.582;2022-10-17T00:20:51;8.40;;;4.28;;
71236;SDS011;58984;51.960;5.582;2022-10-17T00:23:17;8.57;;;4.63;;
71236;SDS011;58984;51.960;5.582;2022-10-17T00:25:43;7.22;;;4.28;;
71236;SDS011;58984;51.960;5.582;2022-10-17T00:28:12;11.43;;;4.20;;
71236;SDS011;58984;51.960;5.582;2022-10-17T00:30:39;7.20;;;4.55;;
71236;SDS011;58984;51.960;5.582;2022-10-17T00:33:05;8.32;;;4.60;;
71236;SDS011;58984;51.960;5.582;2022-10-17T00:35:31;9.45;;;4.55;;
71236;SDS011;58984;51.960;5.582;2022-10-17T00:37:57;6.47;;;4.53;;
71236;SDS011;58984;51.960;5.582;2022-10-17T00:40:22;6.30;;;3.97;;
71236;SDS011;58984;51.960;5.582;2022-10-17T00:42:48;9.18;;;4.47;;
71236;SDS011;58984;51.960;5.582;2022-10-17T00:47:53;5.80;;;4.53;;
71236;SDS011;58984;51.960;5.582;2022-10-17T00:50:24;8.55;;;4.47;;
71236;SDS011;58984;51.960;5.582;2022-10-17T00:52:52;6.35;;;4.32;;
71236;SDS011;58984;51.960;5.582;2022-10-17T00:55:22;5.03;;;3.95;;
71236;SDS011;58984;51.960;5.582;2022-10-17T00:57:53;6.70;;;4.18;;
71236;SDS011;58984;51.960;5.582;2022-10-17T01:00:20;6.13;;;4.35;;
71236;SDS011;58984;51.960;5.582;2022-10-17T01:02:46;5.68;;;3.72;;
71236;SDS011;58984;51.960;5.582;2022-10-17T01:05:12;7.10;;;4.25;;
71236;SDS011;58984;51.960;5.582;2022-10-17T01:07:39;6.15;;;4.13;;
71236;SDS011;58984;51.960;5.582;2022-10-17T01:10:06;6.63;;;4.10;;
71236;SDS011;58984;51.960;5.582;2022-10-17T01:15:20;4.97;;;4.28;;
71236;SDS011;58984;51.960;5.582;2022-10-17T01:18:23;6.63;;;3.92;;
71236;SDS011;58984;51.960;5.582;2022-10-17T01:29:30;6.15;;;4.28;;
71236;SDS011;58984;51.960;5.582;2022-10-17T01:32:06;5.57;;;4.15;;
71236;SDS011;58984;51.960;5.582;2022-10-17T01:37:14;7.68;;;5.00;;
71236;SDS011;58984;51.960;5.582;2022-10-17T01:40:09;7.13;;;4.78;;
71236;SDS011;58984;51.960;5.582;2022-10-17T01:42:52;7.38;;;4.53;;
71236;SDS011;58984;51.960;5.582;2022-10-17T01:45:30;7.20;;;4.85;;
71236;SDS011;58984;51.960;5.582;2022-10-17T01:48:18;6.78;;;4.85;;
71236;SDS011;58984;51.960;5.582;2022-10-17T01:50:48;9.15;;;5.05;;
71236;SDS011;58984;51.960;5.582;2022-10-17T01:53:23;7.32;;;4.85;;
71236;SDS011;58984;51.960;5.582;2022-10-17T01:55:55;7.13;;;5.47;;
71236;SDS011;58984;51.960;5.582;2022-10-17T01:58:29;6.20;;;5.18;;
71236;SDS011;58984;51.960;5.582;2022-10-17T02:01:06;7.03;;;4.70;;
71236;SDS011;58984;51.960;5.582;2022-10-17T02:03:35;9.07;;;5.28;;
71236;SDS011;58984;51.960;5.582;2022-10-17T02:06:03;7.72;;;5.03;;
71236;SDS011;58984;51.960;5.582;2022-10-17T02:08:40;9.77;;;5.47;;
71236;SDS011;58984;51.960;5.582;2022-10-17T02:11:14;6.72;;;5.07;;
71236;SDS011;58984;51.960;5.582;2022-10-17T02:16:49;10.40;;;5.28;;
71236;SDS011;58984;51.960;5.582;2022-10-17T02:22:34;8.13;;;5.15;;
71236;SDS011;58984;51.960;5.582;2022-10-17T02:30:33;9.35;;;6.25;;
71236;SDS011;58984;51.960;5.582;2022-10-17T02:33:06;7.85;;;5.65;;
71236;SDS011;58984;51.960;5.582;2022-10-17T02:35:40;8.68;;;5.68;;
71236;SDS011;58984;51.960;5.582;2022-10-17T02:38:10;8.88;;;5.90;;
71236;SDS011;58984;51.960;5.582;2022-10-17T02:40:37;10.07;;;6.03;;
71236;SDS011;58984;51.960;5.582;2022-10-17T02:43:04;7.47;;;6.00;;
71236;SDS011;58984;51.960;5.582;2022-10-17T02:45:30;10.27;;;6.43;;
71236;SDS011;58984;51.960;5.582;2022-10-17T02:50:32;8.68;;;6.78;;
71236;SDS011;58984;51.960;5.582;2022-10-17T02:53:13;10.27;;;6.25;;
71236;SDS011;58984;51.960;5.582;2022-10-17T02:55:48;10.45;;;6.97;;
71236;SDS011;58984;51.960;5.582;2022-10-17T02:58:19;12.00;;;6.63;;
71236;SDS011;58984;51.960;5.582;2022-10-17T03:00:49;11.90;;;6.17;;
71236;SDS011;58984;51.960;5.582;2022-10-17T03:05:50;9.57;;;6.93;;
71236;SDS011;58984;51.960;5.582;2022-10-17T03:08:16;11.40;;;7.70;;
71236;SDS011;58984;51.960;5.582;2022-10-17T03:10:42;11.82;;;7.20;;
71236;SDS011;58984;51.960;5.582;2022-10-17T03:13:08;11.90;;;7.07;;
71236;SDS011;58984;51.960;5.582;2022-10-17T03:15:34;10.95;;;6.85;;
71236;SDS011;58984;51.960;5.582;2022-10-17T03:17:59;11.80;;;6.82;;
71236;SDS011;58984;51.960;5.582;2022-10-17T03:20:25;11.20;;;7.22;;
71236;SDS011;58984;51.960;5.582;2022-10-17T03:22:50;10.00;;;6.63;;
71236;SDS011;58984;51.960;5.582;2022-10-17T03:25:16;10.50;;;7.20;;
71236;SDS011;58984;51.960;5.582;2022-10-17T03:27:42;8.73;;;5.90;;
71236;SDS011;58984;51.960;5.582;2022-10-17T03:30:07;12.77;;;6.60;;
71236;SDS011;58984;51.960;5.582;2022-10-17T03:32:33;11.50;;;7.15;;
71236;SDS011;58984;51.960;5.582;2022-10-17T03:34:59;9.48;;;6.95;;
71236;SDS011;58984;51.960;5.582;2022-10-17T03:37:24;9.05;;;6.28;;
71236;SDS011;58984;51.960;5.582;2022-10-17T03:39:50;8.88;;;6.70;;
71236;SDS011;58984;51.960;5.582;2022-10-17T03:42:15;8.38;;;6.47;;
71236;SDS011;58984;51.960;5.582;2022-10-17T03:44:41;10.13;;;6.15;;
71236;SDS011;58984;51.960;5.582;2022-10-17T03:47:06;9.20;;;6.43;;
71236;SDS011;58984;51.960;5.582;2022-10-17T03:49:32;11.05;;;7.00;;
71236;SDS011;58984;51.960;5.582;2022-10-17T03:51:57;10.85;;;6.60;;
71236;SDS011;58984;51.960;5.582;2022-10-17T03:54:23;9.73;;;5.57;;
71236;SDS011;58984;51.960;5.582;2022-10-17T03:56:49;9.60;;;6.32;;
71236;SDS011;58984;51.960;5.582;2022-10-17T03:59:14;9.35;;;5.93;;
71236;SDS011;58984;51.960;5.582;2022-10-17T04:01:40;8.68;;;5.85;;
71236;SDS011;58984;51.960;5.582;2022-10-17T04:04:06;8.60;;;5.82;;
71236;SDS011;58984;51.960;5.582;2022-10-17T04:06:32;8.38;;;5.40;;
71236;SDS011;58984;51.960;5.582;2022-10-17T04:08:58;8.75;;;6.10;;
71236;SDS011;58984;51.960;5.582;2022-10-17T04:11:24;8.43;;;5.82;;
71236;SDS011;58984;51.960;5.582;2022-10-17T04:13:53;8.82;;;5.90;;
71236;SDS011;58984;51.960;5.582;2022-10-17T04:16:20;9.35;;;5.85;;
71236;SDS011;58984;51.960;5.582;2022-10-17T04:18:47;10.38;;;6.32;;
71236;SDS011;58984;51.960;5.582;2022-10-17T04:21:18;10.20;;;6.32;;
71236;SDS011;58984;51.960;5.582;2022-10-17T04:23:43;8.85;;;5.45;;
71236;SDS011;58984;51.960;5.582;2022-10-17T04:26:09;7.93;;;5.50;;
71236;SDS011;58984;51.960;5.582;2022-10-17T04:28:35;9.35;;;5.82;;
71236;SDS011;58984;51.960;5.582;2022-10-17T04:31:04;7.93;;;5.50;;
71236;SDS011;58984;51.960;5.582;2022-10-17T04:33:32;9.45;;;5.60;;
71236;SDS011;58984;51.960;5.582;2022-10-17T04:36:09;8.38;;;6.53;;
71236;SDS011;58984;51.960;5.582;2022-10-17T04:38:36;9.75;;;6.30;;
71236;SDS011;58984;51.960;5.582;2022-10-17T04:41:03;11.10;;;6.40;;
71236;SDS011;58984;51.960;5.582;2022-10-17T04:43:34;8.77;;;5.90;;
71236;SDS011;58984;51.960;5.582;2022-10-17T04:46:01;8.38;;;5.25;;
71236;SDS011;58984;51.960;5.582;2022-10-17T04:48:28;8.38;;;6.05;;
71236;SDS011;58984;51.960;5.582;2022-10-17T04:50:58;7.50;;;5.72;;
71236;SDS011;58984;51.960;5.582;2022-10-17T04:53:26;7.87;;;5.90;;
71236;SDS011;58984;51.960;5.582;2022-10-17T04:55:52;7.03;;;5.53;;
71236;SDS011;58984;51.960;5.582;2022-10-17T04:58:18;8.38;;;5.57;;
71236;SDS011;58984;51.960;5.582;2022-10-17T05:00:44;8.55;;;5.63;;
71236;SDS011;58984;51.960;5.582;2022-10-17T05:03:10;8.98;;;5.85;;
71236;SDS011;58984;51.960;5.582;2022-10-17T05:05:36;8.43;;;6.07;;
71236;SDS011;58984;51.960;5.582;2022-10-17T05:08:03;8.13;;;6.00;;
71236;SDS011;58984;51.960;5.582;2022-10-17T05:10:29;9.38;;;6.18;;
71236;SDS011;58984;51.960;5.582;2022-10-17T05:12:55;11.63;;;6.78;;
71236;SDS011;58984;51.960;5.582;2022-10-17T05:15:20;8.35;;;6.82;;
71236;SDS011;58984;51.960;5.582;2022-10-17T05:17:46;10.80;;;6.60;;
71236;SDS011;58984;51.960;5.582;2022-10-17T05:20:11;7.82;;;5.15;;
71236;SDS011;58984;51.960;5.582;2022-10-17T05:22:37;8.40;;;6.25;;
71236;SDS011;58984;51.960;5.582;2022-10-17T05:25:03;9.38;;;6.57;;
71236;SDS011;58984;51.960;5.582;2022-10-17T05:27:29;8.75;;;6.25;;
71236;SDS011;58984;51.960;5.582;2022-10-17T05:29:54;11.10;;;6.38;;
71236;SDS011;58984;51.960;5.582;2022-10-17T05:32:20;10.48;;;6.53;;
71236;SDS011;58984;51.960;5.582;2022-10-17T05:34:45;11.13;;;6.47;;
71236;SDS011;58984;51.960;5.582;2022-10-17T05:37:11;8.35;;;6.10;;
71236;SDS011;58984;51.960;5.582;2022-10-17T05:39:36;8.52;;;6.55;;
71236;SDS011;58984;51.960;5.582;2022-10-17T05:42:02;10.27;;;6.40;;
71236;SDS011;58984;51.960;5.582;2022-10-17T05:44:27;8.82;;;6.50;;
71236;SDS011;58984;51.960;5.582;2022-10-17T05:46:53;9.13;;;6.45;;
71236;SDS011;58984;51.960;5.582;2022-10-17T05:49:18;12.70;;;7.30;;
71236;SDS011;58984;51.960;5.582;2022-10-17T05:51:44;9.77;;;6.80;;
71236;SDS011;58984;51.960;5.582;2022-10-17T05:54:09;9.32;;;6.50;;
71236;SDS011;58984;51.960;5.582;2022-10-17T05:56:35;9.27;;;6.90;;
71236;SDS011;58984;51.960;5.582;2022-10-17T05:59:01;11.38;;;6.95;;
71236;SDS011;58984;51.960;5.582;2022-10-17T06:01:27;13.75;;;7.18;;
71236;SDS011;58984;51.960;5.582;2022-10-17T06:03:52;10.23;;;7.45;;
71236;SDS011;58984;51.960;5.582;2022-10-17T06:06:18;10.88;;;6.88;;
71236;SDS011;58984;51.960;5.582;2022-10-17T06:08:44;10.30;;;6.70;;
71236;SDS011;58984;51.960;5.582;2022-10-17T06:11:10;10.50;;;6.85;;
71236;SDS011;58984;51.960;5.582;2022-10-17T06:13:37;9.57;;;6.80;;
71236;SDS011;58984;51.960;5.582;2022-10-17T06:16:03;10.70;;;6.72;;
71236;SDS011;58984;51.960;5.582;2022-10-17T06:18:30;10.32;;;6.72;;
71236;SDS011;58984;51.960;5.582;2022-10-17T06:21:05;8.93;;;6.93;;
71236;SDS011;58984;51.960;5.582;2022-10-17T06:23:32;14.93;;;8.10;;
71236;SDS011;58984;51.960;5.582;2022-10-17T06:26:03;13.60;;;7.85;;
71236;SDS011;58984;51.960;5.582;2022-10-17T06:28:29;9.07;;;7.40;;
71236;SDS011;58984;51.960;5.582;2022-10-17T06:30:56;12.45;;;7.50;;
71236;SDS011;58984;51.960;5.582;2022-10-17T06:33:22;10.45;;;6.80;;
71236;SDS011;58984;51.960;5.582;2022-10-17T06:35:54;14.18;;;7.05;;
71236;SDS011;58984;51.960;5.582;2022-10-17T06:38:21;12.75;;;7.13;;
71236;SDS011;58984;51.960;5.582;2022-10-17T06:40:47;11.65;;;7.32;;
71236;SDS011;58984;51.960;5.582;2022-10-17T06:43:13;11.55;;;7.63;;
71236;SDS011;58984;51.960;5.582;2022-10-17T06:45:38;9.25;;;6.95;;
71236;SDS011;58984;51.960;5.582;2022-10-17T06:48:05;12.63;;;7.28;;
71236;SDS011;58984;51.960;5.582;2022-10-17T06:50:30;10.25;;;7.28;;
71236;SDS011;58984;51.960;5.582;2022-10-17T06:52:56;10.75;;;7.25;;
71236;SDS011;58984;51.960;5.582;2022-10-17T06:55:22;12.55;;;6.93;;
71236;SDS011;58984;51.960;5.582;2022-10-17T06:57:47;9.95;;;6.70;;
71236;SDS011;58984;51.960;5.582;2022-10-17T07:00:13;9.90;;;7.13;;
71236;SDS011;58984;51.960;5.582;2022-10-17T07:02:39;8.88;;;6.50;;
71236;SDS011;58984;51.960;5.582;2022-10-17T07:05:06;8.82;;;6.60;;
71236;SDS011;58984;51.960;5.582;2022-10-17T07:07:32;9.13;;;6.80;;
71236;SDS011;58984;51.960;5.582;2022-10-17T07:09:57;9.68;;;6.57;;
71236;SDS011;58984;51.960;5.582;2022-10-17T07:12:23;8.98;;;6.38;;
71236;SDS011;58984;51.960;5.582;2022-10-17T07:14:49;9.70;;;6.53;;
71236;SDS011;58984;51.960;5.582;2022-10-17T07:17:15;11.57;;;6.80;;
71236;SDS011;58984;51.960;5.582;2022-10-17T07:19:41;9.43;;;6.35;;
71236;SDS011;58984;51.960;5.582;2022-10-17T07:22:07;11.52;;;6.80;;
71236;SDS011;58984;51.960;5.582;2022-10-17T07:24:33;9.30;;;6.18;;
71236;SDS011;58984;51.960;5.582;2022-10-17T07:26:59;9.35;;;6.22;;
71236;SDS011;58984;51.960;5.582;2022-10-17T07:29:25;10.05;;;6.75;;
71236;SDS011;58984;51.960;5.582;2022-10-17T07:31:50;15.93;;;6.70;;
71236;SDS011;58984;51.960;5.582;2022-10-17T07:34:17;10.10;;;6.85;;
71236;SDS011;58984;51.960;5.582;2022-10-17T07:36:42;12.73;;;6.32;;
71236;SDS011;58984;51.960;5.582;2022-10-17T07:39:08;7.05;;;6.30;;
71236;SDS011;58984;51.960;5.582;2022-10-17T07:41:34;8.27;;;6.05;;
71236;SDS011;58984;51.960;5.582;2022-10-17T07:44:00;9.57;;;5.63;;
71236;SDS011;58984;51.960;5.582;2022-10-17T07:46:25;9.45;;;6.72;;
71236;SDS011;58984;51.960;5.582;2022-10-17T07:48:51;9.02;;;5.95;;
71236;SDS011;58984;51.960;5.582;2022-10-17T07:51:16;10.38;;;6.18;;
71236;SDS011;58984;51.960;5.582;2022-10-17T07:53:44;8.82;;;6.10;;
71236;SDS011;58984;51.960;5.582;2022-10-17T07:56:10;7.38;;;6.00;;
71236;SDS011;58984;51.960;5.582;2022-10-17T07:58:36;8.10;;;6.00;;
71236;SDS011;58984;51.960;5.582;2022-10-17T08:01:03;9.50;;;5.68;;
71236;SDS011;58984;51.960;5.582;2022-10-17T08:03:30;10.27;;;6.25;;
71236;SDS011;58984;51.960;5.582;2022-10-17T08:05:56;7.95;;;6.18;;
71236;SDS011;58984;51.960;5.582;2022-10-17T08:08:23;8.95;;;6.18;;
71236;SDS011;58984;51.960;5.582;2022-10-17T08:10:48;9.60;;;6.38;;
71236;SDS011;58984;51.960;5.582;2022-10-17T08:13:14;11.07;;;6.55;;
71236;SDS011;58984;51.960;5.582;2022-10-17T08:15:39;8.70;;;6.40;;
71236;SDS011;58984;51.960;5.582;2022-10-17T08:18:05;11.07;;;7.35;;
71236;SDS011;58984;51.960;5.582;2022-10-17T08:20:31;13.07;;;6.72;;
71236;SDS011;58984;51.960;5.582;2022-10-17T08:22:56;8.38;;;6.03;;
71236;SDS011;58984;51.960;5.582;2022-10-17T08:25:22;7.47;;;5.90;;
71236;SDS011;58984;51.960;5.582;2022-10-17T08:27:48;7.82;;;6.18;;
71236;SDS011;58984;51.960;5.582;2022-10-17T08:30:13;11.32;;;6.57;;
71236;SDS011;58984;51.960;5.582;2022-10-17T08:32:39;9.40;;;6.07;;
71236;SDS011;58984;51.960;5.582;2022-10-17T08:35:05;9.18;;;6.28;;
71236;SDS011;58984;51.960;5.582;2022-10-17T08:37:31;9.50;;;5.72;;
71236;SDS011;58984;51.960;5.582;2022-10-17T08:39:57;9.30;;;6.15;;
71236;SDS011;58984;51.960;5.582;2022-10-17T08:42:30;9.30;;;5.72;;
71236;SDS011;58984;51.960;5.582;2022-10-17T08:47:59;6.80;;;5.53;;
71236;SDS011;58984;51.960;5.582;2022-10-17T08:50:42;7.78;;;5.40;;
71236;SDS011;58984;51.960;5.582;2022-10-17T08:55:47;8.55;;;5.85;;
71236;SDS011;58984;51.960;5.582;2022-10-17T08:58:26;8.82;;;5.50;;
71236;SDS011;58984;51.960;5.582;2022-10-17T09:01:05;8.27;;;5.43;;
71236;SDS011;58984;51.960;5.582;2022-10-17T09:04:05;10.13;;;5.93;;
71236;SDS011;58984;51.960;5.582;2022-10-17T09:06:37;7.63;;;5.40;;
71236;SDS011;58984;51.960;5.582;2022-10-17T09:21:00;6.15;;;5.03;;
71236;SDS011;58984;51.960;5.582;2022-10-17T09:23:53;7.47;;;4.53;;
71236;SDS011;58984;51.960;5.582;2022-10-17T09:26:21;6.60;;;4.80;;
71236;SDS011;58984;51.960;5.582;2022-10-17T09:28:52;7.28;;;5.32;;
71236;SDS011;58984;51.960;5.582;2022-10-17T09:31:39;7.90;;;5.30;;
71236;SDS011;58984;51.960;5.582;2022-10-17T09:34:09;9.50;;;5.13;;
71236;SDS011;58984;51.960;5.582;2022-10-17T09:36:37;6.57;;;4.75;;
71236;SDS011;58984;51.960;5.582;2022-10-17T09:39:10;8.65;;;5.63;;
71236;SDS011;58984;51.960;5.582;2022-10-17T09:41:38;7.22;;;5.38;;
71236;SDS011;58984;51.960;5.582;2022-10-17T09:49:58;7.87;;;5.07;;
71236;SDS011;58984;51.960;5.582;2022-10-17T09:52:33;6.40;;;4.88;;
71236;SDS011;58984;51.960;5.582;2022-10-17T09:55:25;7.13;;;5.38;;
71236;SDS011;58984;51.960;5.582;2022-10-17T09:57:56;9.40;;;5.95;;
71236;SDS011;58984;51.960;5.582;2022-10-17T10:00:27;9.83;;;5.67;;
71236;SDS011;58984;51.960;5.582;2022-10-17T10:05:33;8.65;;;5.43;;
71236;SDS011;58984;51.960;5.582;2022-10-17T10:08:03;8.98;;;5.43;;
71236;SDS011;58984;51.960;5.582;2022-10-17T10:10:36;7.68;;;5.32;;
71236;SDS011;58984;51.960;5.582;2022-10-17T10:15:38;6.75;;;4.90;;
71236;SDS011;58984;51.960;5.582;2022-10-17T10:21:13;10.23;;;5.32;;
71236;SDS011;58984;51.960;5.582;2022-10-17T10:26:24;7.63;;;5.63;;
71236;SDS011;58984;51.960;5.582;2022-10-17T10:28:57;5.78;;;4.53;;
71236;SDS011;58984;51.960;5.582;2022-10-17T10:31:33;8.05;;;5.15;;
71236;SDS011;58984;51.960;5.582;2022-10-17T10:34:02;6.25;;;5.28;;
71236;SDS011;58984;51.960;5.582;2022-10-17T10:37:00;7.25;;;4.78;;
71236;SDS011;58984;51.960;5.582;2022-10-17T10:42:03;7.00;;;4.88;;
71236;SDS011;58984;51.960;5.582;2022-10-17T10:44:32;7.63;;;4.95;;
71236;SDS011;58984;51.960;5.582;2022-10-17T10:47:07;5.47;;;4.25;;
71236;SDS011;58984;51.960;5.582;2022-10-17T10:49:51;6.65;;;4.60;;
71236;SDS011;58984;51.960;5.582;2022-10-17T10:52:33;5.90;;;4.97;;
71236;SDS011;58984;51.960;5.582;2022-10-17T10:55:20;8.05;;;4.95;;
71236;SDS011;58984;51.960;5.582;2022-10-17T10:57:54;8.48;;;4.80;;
71236;SDS011;58984;51.960;5.582;2022-10-17T11:00:24;4.63;;;4.18;;
71236;SDS011;58984;51.960;5.582;2022-10-17T11:02:56;6.70;;;4.90;;
71236;SDS011;58984;51.960;5.582;2022-10-17T11:13:32;6.28;;;4.43;;
71236;SDS011;58984;51.960;5.582;2022-10-17T11:24:42;5.22;;;3.85;;
71236;SDS011;58984;51.960;5.582;2022-10-17T11:27:09;4.85;;;4.10;;
71236;SDS011;58984;51.960;5.582;2022-10-17T11:29:36;6.93;;;4.30;;
71236;SDS011;58984;51.960;5.582;2022-10-17T11:32:11;5.47;;;4.47;;
71236;SDS011;58984;51.960;5.582;2022-10-17T11:35:00;6.18;;;4.53;;
71236;SDS011;58984;51.960;5.582;2022-10-17T11:37:49;5.47;;;4.55;;
71236;SDS011;58984;51.960;5.582;2022-10-17T11:40:30;5.45;;;4.30;;
71236;SDS011;58984;51.960;5.582;2022-10-17T11:43:46;6.18;;;3.90;;
71236;SDS011;58984;51.960;5.582;2022-10-17T11:46:05;8.52;;;4.80;;
71236;SDS011;58984;51.960;5.582;2022-10-17T11:48:40;5.18;;;4.20;;
71236;SDS011;58984;51.960;5.582;2022-10-17T11:51:28;5.13;;;4.18;;
71236;SDS011;58984;51.960;5.582;2022-10-17T11:54:01;5.40;;;4.10;;
71236;SDS011;58984;51.960;5.582;2022-10-17T12:05:44;7.00;;;4.60;;
71236;SDS011;58984;51.960;5.582;2022-10-17T12:08:32;5.40;;;3.95;;
71236;SDS011;58984;51.960;5.582;2022-10-17T12:17:19;6.25;;;4.10;;
71236;SDS011;58984;51.960;5.582;2022-10-17T12:19:53;6.20;;;4.57;;
71236;SDS011;58984;51.960;5.582;2022-10-17T12:22:44;6.30;;;4.38;;
71236;SDS011;58984;51.960;5.582;2022-10-17T12:25:15;6.30;;;4.85;;
71236;SDS011;58984;51.960;5.582;2022-10-17T12:27:44;6.63;;;4.07;;
71236;SDS011;58984;51.960;5.582;2022-10-17T12:32:52;6.15;;;4.18;;
71236;SDS011;58984;51.960;5.582;2022-10-17T12:35:30;6.03;;;4.45;;
71236;SDS011;58984;51.960;5.582;2022-10-17T12:38:13;7.32;;;4.45;;
71236;SDS011;58984;51.960;5.582;2022-10-17T12:53:39;7.78;;;4.72;;
71236;SDS011;58984;51.960;5.582;2022-10-17T12:56:09;6.15;;;4.82;;
71236;SDS011;58984;51.960;5.582;2022-10-17T12:58:36;5.97;;;4.25;;
71236;SDS011;58984;51.960;5.582;2022-10-17T13:01:08;5.35;;;4.53;;
71236;SDS011;58984;51.960;5.582;2022-10-17T13:03:42;7.55;;;4.68;;
71236;SDS011;58984;51.960;5.582;2022-10-17T13:06:12;7.25;;;4.60;;
71236;SDS011;58984;51.960;5.582;2022-10-17T13:08:44;5.05;;;4.20;;
71236;SDS011;58984;51.960;5.582;2022-10-17T13:11:14;6.45;;;4.50;;
71236;SDS011;58984;51.960;5.582;2022-10-17T13:13:49;6.13;;;4.32;;
71236;SDS011;58984;51.960;5.582;2022-10-17T13:19:00;5.20;;;4.30;;
71236;SDS011;58984;51.960;5.582;2022-10-17T13:21:27;5.00;;;4.40;;
71236;SDS011;58984;51.960;5.582;2022-10-17T13:23:53;7.70;;;4.45;;
71236;SDS011;58984;51.960;5.582;2022-10-17T13:26:20;4.93;;;3.90;;
71236;SDS011;58984;51.960;5.582;2022-10-17T13:33:58;4.80;;;4.30;;
71236;SDS011;58984;51.960;5.582;2022-10-17T13:36:25;6.93;;;4.47;;
71236;SDS011;58984;51.960;5.582;2022-10-17T13:38:52;6.90;;;4.60;;
71236;SDS011;58984;51.960;5.582;2022-10-17T13:41:22;5.18;;;4.38;;
71236;SDS011;58984;51.960;5.582;2022-10-17T13:43:53;6.70;;;5.18;;
71236;SDS011;58984;51.960;5.582;2022-10-17T13:46:24;6.68;;;5.00;;
71236;SDS011;58984;51.960;5.582;2022-10-17T13:48:55;7.22;;;5.00;;
71236;SDS011;58984;51.960;5.582;2022-10-17T13:51:22;5.63;;;4.32;;
71236;SDS011;58984;51.960;5.582;2022-10-17T13:53:49;6.70;;;4.95;;
71236;SDS011;58984;51.960;5.582;2022-10-17T13:56:19;7.55;;;4.28;;
71236;SDS011;58984;51.960;5.582;2022-10-17T13:58:51;5.88;;;4.35;;
71236;SDS011;58984;51.960;5.582;2022-10-17T14:01:20;6.93;;;4.45;;
71236;SDS011;58984;51.960;5.582;2022-10-17T14:03:47;4.75;;;4.18;;
71236;SDS011;58984;51.960;5.582;2022-10-17T14:08:48;6.78;;;4.82;;
71236;SDS011;58984;51.960;5.582;2022-10-17T14:13:51;6.82;;;4.55;;
71236;SDS011;58984;51.960;5.582;2022-10-17T14:16:19;6.43;;;4.72;;
71236;SDS011;58984;51.960;5.582;2022-10-17T14:18:47;6.10;;;4.68;;
71236;SDS011;58984;51.960;5.582;2022-10-17T14:21:19;5.07;;;4.57;;
71236;SDS011;58984;51.960;5.582;2022-10-17T14:23:46;7.72;;;4.75;;
71236;SDS011;58984;51.960;5.582;2022-10-17T14:26:13;6.32;;;4.78;;
71236;SDS011;58984;51.960;5.582;2022-10-17T14:28:46;7.05;;;4.65;;
71236;SDS011;58984;51.960;5.582;2022-10-17T14:33:44;4.57;;;3.78;;
71236;SDS011;58984;51.960;5.582;2022-10-17T14:36:11;5.05;;;4.35;;
71236;SDS011;58984;51.960;5.582;2022-10-17T14:38:37;6.03;;;4.22;;
71236;SDS011;58984;51.960;5.582;2022-10-17T14:41:12;5.43;;;4.30;;
71236;SDS011;58984;51.960;5.582;2022-10-17T14:43:42;4.78;;;4.05;;
71236;SDS011;58984;51.960;5.582;2022-10-17T14:46:13;7.07;;;4.45;;
71236;SDS011;58984;51.960;5.582;2022-10-17T14:48:40;5.20;;;3.88;;
71236;SDS011;58984;51.960;5.582;2022-10-17T14:51:10;6.70;;;4.55;;
71236;SDS011;58984;51.960;5.582;2022-10-17T14:53:39;5.82;;;4.72;;
71236;SDS011;58984;51.960;5.582;2022-10-17T14:56:22;5.55;;;4.40;;
71236;SDS011;58984;51.960;5.582;2022-10-17T14:58:50;4.72;;;4.07;;
71236;SDS011;58984;51.960;5.582;2022-10-17T15:01:16;6.38;;;4.57;;
71236;SDS011;58984;51.960;5.582;2022-10-17T15:03:42;6.43;;;4.90;;
71236;SDS011;58984;51.960;5.582;2022-10-17T15:06:14;6.18;;;4.20;;
71236;SDS011;58984;51.960;5.582;2022-10-17T15:08:43;6.38;;;4.13;;
71236;SDS011;58984;51.960;5.582;2022-10-17T15:11:09;5.30;;;4.30;;
71236;SDS011;58984;51.960;5.582;2022-10-17T15:13:35;5.40;;;4.50;;
71236;SDS011;58984;51.960;5.582;2022-10-17T15:16:01;7.05;;;4.85;;
71236;SDS011;58984;51.960;5.582;2022-10-17T15:18:30;7.47;;;4.68;;
71236;SDS011;58984;51.960;5.582;2022-10-17T15:20:56;7.75;;;4.60;;
71236;SDS011;58984;51.960;5.582;2022-10-17T15:23:22;5.50;;;4.18;;
71236;SDS011;58984;51.960;5.582;2022-10-17T15:25:47;6.70;;;4.53;;
71236;SDS011;58984;51.960;5.582;2022-10-17T15:28:13;6.63;;;4.28;;
71236;SDS011;58984;51.960;5.582;2022-10-17T15:30:38;7.35;;;4.88;;
71236;SDS011;58984;51.960;5.582;2022-10-17T15:33:04;5.97;;;4.80;;
71236;SDS011;58984;51.960;5.582;2022-10-17T15:35:29;6.75;;;4.68;;
71236;SDS011;58984;51.960;5.582;2022-10-17T15:37:55;6.60;;;4.50;;
71236;SDS011;58984;51.960;5.582;2022-10-17T15:40:23;6.70;;;4.32;;
71236;SDS011;58984;51.960;5.582;2022-10-17T15:42:49;6.47;;;4.75;;
71236;SDS011;58984;51.960;5.582;2022-10-17T15:45:16;4.82;;;4.22;;
71236;SDS011;58984;51.960;5.582;2022-10-17T15:47:48;9.02;;;4.82;;
71236;SDS011;58984;51.960;5.582;2022-10-17T15:50:19;5.90;;;4.47;;
71236;SDS011;58984;51.960;5.582;2022-10-17T15:52:45;5.32;;;4.40;;
71236;SDS011;58984;51.960;5.582;2022-10-17T15:55:13;5.43;;;4.75;;
71236;SDS011;58984;51.960;5.582;2022-10-17T15:57:40;5.70;;;4.57;;
71236;SDS011;58984;51.960;5.582;2022-10-17T16:00:16;5.80;;;4.82;;
71236;SDS011;58984;51.960;5.582;2022-10-17T16:02:43;5.93;;;4.55;;
71236;SDS011;58984;51.960;5.582;2022-10-17T16:05:13;5.38;;;4.38;;
71236;SDS011;58984;51.960;5.582;2022-10-17T16:07:40;7.22;;;5.10;;
71236;SDS011;58984;51.960;5.582;2022-10-17T16:10:06;8.18;;;4.93;;
71236;SDS011;58984;51.960;5.582;2022-10-17T16:12:34;7.53;;;5.10;;
71236;SDS011;58984;51.960;5.582;2022-10-17T16:15:05;5.75;;;4.70;;
71236;SDS011;58984;51.960;5.582;2022-10-17T16:17:36;6.75;;;5.18;;
71236;SDS011;58984;51.960;5.582;2022-10-17T16:20:02;5.30;;;4.80;;
71236;SDS011;58984;51.960;5.582;2022-10-17T16:22:32;6.13;;;4.60;;
71236;SDS011;58984;51.960;5.582;2022-10-17T16:25:04;5.53;;;4.78;;
71236;SDS011;58984;51.960;5.582;2022-10-17T16:30:01;7.05;;;5.10;;
71236;SDS011;58984;51.960;5.582;2022-10-17T16:32:27;8.13;;;4.80;;
71236;SDS011;58984;51.960;5.582;2022-10-17T16:34:53;7.00;;;5.68;;
71236;SDS011;58984;51.960;5.582;2022-10-17T16:37:19;6.60;;;4.82;;
71236;SDS011;58984;51.960;5.582;2022-10-17T16:39:44;7.63;;;5.82;;
71236;SDS011;58984;51.960;5.582;2022-10-17T16:42:16;7.03;;;5.65;;
71236;SDS011;58984;51.960;5.582;2022-10-17T16:44:42;9.93;;;6.18;;
71236;SDS011;58984;51.960;5.582;2022-10-17T16:47:08;8.48;;;6.22;;
71236;SDS011;58984;51.960;5.582;2022-10-17T16:49:33;7.68;;;5.95;;
71236;SDS011;58984;51.960;5.582;2022-10-17T16:54:27;10.25;;;5.95;;
71236;SDS011;58984;51.960;5.582;2022-10-17T16:56:53;7.35;;;5.63;;
71236;SDS011;58984;51.960;5.582;2022-10-17T16:59:21;7.10;;;6.13;;
71236;SDS011;58984;51.960;5.582;2022-10-17T17:01:47;8.52;;;6.80;;
71236;SDS011;58984;51.960;5.582;2022-10-17T17:04:13;8.98;;;6.88;;
71236;SDS011;58984;51.960;5.582;2022-10-17T17:06:38;7.07;;;6.05;;
71236;SDS011;58984;51.960;5.582;2022-10-17T17:09:04;7.65;;;5.75;;
71236;SDS011;58984;51.960;5.582;2022-10-17T17:11:29;6.80;;;6.05;;
71236;SDS011;58984;51.960;5.582;2022-10-17T17:13:56;8.73;;;6.38;;
71236;SDS011;58984;51.960;5.582;2022-10-17T17:16:23;10.10;;;6.15;;